Time;durP1;ratioP1;P1;durP2;ratioP2;P2;SDS_P1;SDS_P2;PMS_P1;PMS_P2;Temp;Humidity;BMP_temperature;BMP_pressure;BME280_temperature;BME280_humidity;BME280_pressure;Samples;Min_cycle;Max_cycle;Signal;HPM_P1;HPM_P2
2023/12/06 00:01:55;;;;;;;3.57;2.00;;;;;;;;;;4979705;28;20630;-85
2023/12/06 00:04:59;;;;;;;2.97;2.00;;;;;;;;;;4980075;28;20535;-86
2023/12/06 00:08:03;;;;;;;2.37;1.93;;;;;;;;;;4968238;28;20551;-85
2023/12/06 00:11:07;;;;;;;4.37;2.30;;;;;;;;;;4978611;28;20630;-85
2023/12/06 00:14:12;;;;;;;2.10;1.80;;;;;;;;;;4978386;28;20901;-84
2023/12/06 00:17:17;;;;;;;2.67;2.00;;;;;;;;;;4977322;28;21071;-84
2023/12/06 00:20:23;;;;;;;2.30;1.90;;;;;;;;;;4977865;28;21182;-85
2023/12/06 00:23:28;;;;;;;3.33;2.17;;;;;;;;;;4955779;28;20610;-82
2023/12/06 00:26:32;;;;;;;3.13;2.20;;;;;;;;;;4955357;28;21075;-82
2023/12/06 00:29:37;;;;;;;3.00;2.13;;;;;;;;;;4976924;28;20562;-82
2023/12/06 00:32:41;;;;;;;3.90;2.30;;;;;;;;;;4966210;28;21068;-81
2023/12/06 00:35:45;;;;;;;3.17;2.20;;;;;;;;;;4977322;28;20179;-83
2023/12/06 00:38:50;;;;;;;3.60;2.57;;;;;;;;;;4977804;28;20874;-81
2023/12/06 00:41:54;;;;;;;2.87;2.30;;;;;;;;;;4979420;28;20614;-82
2023/12/06 00:44:58;;;;;;;3.60;2.50;;;;;;;;;;4980539;28;20531;-82
2023/12/06 00:48:03;;;;;;;3.37;2.30;;;;;;;;;;4979985;28;20542;-81
2023/12/06 00:51:07;;;;;;;3.10;2.80;;;;;;;;;;4981183;28;20218;-82
2023/12/06 00:54:11;;;;;;;3.40;2.50;;;;;;;;;;4980925;28;20534;-81
2023/12/06 00:57:15;;;;;;;3.87;2.80;;;;;;;;;;4981785;28;20187;-82
2023/12/06 01:00:21;;;;;;;3.23;2.67;;;;;;;;;;4983107;28;20630;-83
2023/12/06 01:03:25;;;;;;;4.33;3.00;;;;;;;;;;4984056;28;20594;-83
2023/12/06 01:06:30;;;;;;;4.73;2.80;;;;;;;;;;4982925;28;20555;-82
2023/12/06 01:09:34;;;;;;;4.57;2.93;;;;;;;;;;4982229;28;20543;-82
2023/12/06 01:12:38;;;;;;;3.37;2.70;;;;;;;;;;4980743;28;20566;-81
2023/12/06 01:15:43;;;;;;;3.63;2.97;;;;;;;;;;4980634;28;20542;-81
2023/12/06 01:18:47;;;;;;;4.10;2.80;;;;;;;;;;4979844;28;20546;-81
2023/12/06 01:21:51;;;;;;;3.40;2.70;;;;;;;;;;4980497;28;20629;-82
2023/12/06 01:24:59;;;;;;;3.57;2.77;;;;;;;;;;4979558;28;20598;-82
2023/12/06 01:28:04;;;;;;;3.17;2.77;;;;;;;;;;4979456;28;20567;-82
2023/12/06 01:31:08;;;;;;;4.37;2.90;;;;;;;;;;4980074;28;20649;-81
2023/12/06 01:34:12;;;;;;;3.10;2.73;;;;;;;;;;4980344;28;20539;-81
2023/12/06 01:37:16;;;;;;;3.87;2.80;;;;;;;;;;4979748;28;20563;-81
2023/12/06 01:40:20;;;;;;;3.50;2.83;;;;;;;;;;4979013;28;20626;-80
2023/12/06 01:43:24;;;;;;;3.50;2.70;;;;;;;;;;4980547;28;20613;-81
2023/12/06 01:46:28;;;;;;;3.50;2.60;;;;;;;;;;4979993;28;20529;-81
2023/12/06 01:49:34;;;;;;;3.27;2.47;;;;;;;;;;4979303;28;20620;-81
2023/12/06 01:52:38;;;;;;;3.27;2.60;;;;;;;;;;4979672;28;20551;-81
2023/12/06 01:55:44;;;;;;;2.83;2.57;;;;;;;;;;4980514;28;20538;-81
2023/12/06 01:58:49;;;;;;;3.47;2.87;;;;;;;;;;4980207;28;20187;-81
2023/12/06 02:01:53;;;;;;;3.37;2.70;;;;;;;;;;4979682;28;21186;-81
2023/12/06 02:04:59;;;;;;;4.87;3.20;;;;;;;;;;4979953;28;20594;-81
2023/12/06 02:08:04;;;;;;;3.63;2.50;;;;;;;;;;4978918;28;20551;-82
2023/12/06 02:11:08;;;;;;;3.30;2.50;;;;;;;;;;4979480;28;20617;-81
2023/12/06 02:14:13;;;;;;;3.37;3.00;;;;;;;;;;4979385;28;21095;-81
2023/12/06 02:17:18;;;;;;;3.67;2.87;;;;;;;;;;4979655;28;20873;-82
2023/12/06 02:20:24;;;;;;;3.07;2.63;;;;;;;;;;4979237;28;20621;-83
2023/12/06 02:23:32;;;;;;;3.17;2.70;;;;;;;;;;4968741;28;20615;-83
2023/12/06 02:26:36;;;;;;;2.70;2.43;;;;;;;;;;4980507;28;20559;-82
2023/12/06 02:29:40;;;;;;;2.93;2.60;;;;;;;;;;4980778;28;20909;-83
2023/12/06 02:32:45;;;;;;;3.30;2.73;;;;;;;;;;4981002;28;20547;-81
2023/12/06 02:35:51;;;;;;;3.00;2.27;;;;;;;;;;4967492;28;20893;-81
2023/12/06 02:38:55;;;;;;;3.40;2.87;;;;;;;;;;4978564;28;20535;-81
2023/12/06 02:41:59;;;;;;;3.00;2.50;;;;;;;;;;4966476;28;20613;-81
2023/12/06 02:45:04;;;;;;;3.33;2.37;;;;;;;;;;4980845;28;20606;-83
2023/12/06 02:48:09;;;;;;;2.77;2.50;;;;;;;;;;4980452;28;20551;-83
2023/12/06 02:51:13;;;;;;;2.60;2.40;;;;;;;;;;4980932;28;20625;-81
2023/12/06 02:54:17;;;;;;;2.43;2.20;;;;;;;;;;4966953;28;20554;-81
2023/12/06 02:57:21;;;;;;;2.30;2.00;;;;;;;;;;4979352;28;20183;-83
2023/12/06 03:00:25;;;;;;;2.77;2.30;;;;;;;;;;4979651;28;20622;-83
2023/12/06 03:03:29;;;;;;;2.50;2.30;;;;;;;;;;4980228;28;20211;-82
2023/12/06 03:06:33;;;;;;;2.93;2.20;;;;;;;;;;4979528;28;20551;-83
2023/12/06 03:09:37;;;;;;;2.63;2.30;;;;;;;;;;4983458;28;20574;-82
2023/12/06 03:12:42;;;;;;;2.70;2.03;;;;;;;;;;4986878;28;20562;-84
2023/12/06 03:15:46;;;;;;;3.70;2.17;;;;;;;;;;4984047;28;20539;-84
2023/12/06 03:18:51;;;;;;;2.53;2.10;;;;;;;;;;4970583;28;20559;-84
2023/12/06 03:21:56;;;;;;;2.40;1.90;;;;;;;;;;4981447;28;20617;-85
2023/12/06 03:25:00;;;;;;;2.07;1.87;;;;;;;;;;4970170;28;20614;-87
2023/12/06 03:28:05;;;;;;;2.97;2.40;;;;;;;;;;4969839;28;20558;-87
2023/12/06 03:31:09;;;;;;;2.90;2.30;;;;;;;;;;4958757;28;20649;-86
2023/12/06 03:34:14;;;;;;;2.47;2.20;;;;;;;;;;4983047;28;20543;-84
2023/12/06 03:37:18;;;;;;;3.00;2.40;;;;;;;;;;4983815;28;20550;-85
2023/12/06 03:40:22;;;;;;;2.50;2.30;;;;;;;;;;4984189;28;20633;-85
2023/12/06 03:43:26;;;;;;;2.53;2.20;;;;;;;;;;4971663;28;20555;-85
2023/12/06 03:46:31;;;;;;;2.30;2.10;;;;;;;;;;4982943;28;20555;-85
2023/12/06 03:49:35;;;;;;;2.40;2.13;;;;;;;;;;4984992;28;21071;-85
2023/12/06 03:52:40;;;;;;;1.87;1.77;;;;;;;;;;4985017;28;20554;-85
2023/12/06 03:55:44;;;;;;;2.33;2.13;;;;;;;;;;4972681;28;20543;-85
2023/12/06 03:58:48;;;;;;;2.47;1.60;;;;;;;;;;4973823;28;20558;-84
2023/12/06 04:01:52;;;;;;;2.70;2.10;;;;;;;;;;4985953;28;20626;-84
2023/12/06 04:04:57;;;;;;;2.60;1.83;;;;;;;;;;4987206;28;20586;-85
2023/12/06 04:08:02;;;;;;;2.10;1.90;;;;;;;;;;4975768;28;20555;-84
2023/12/06 04:11:06;;;;;;;1.90;1.70;;;;;;;;;;4986862;28;20618;-84
2023/12/06 04:14:10;;;;;;;4.57;1.80;;;;;;;;;;4987608;28;20547;-83
2023/12/06 04:17:14;;;;;;;2.17;1.80;;;;;;;;;;4987175;28;20881;-83
2023/12/06 04:20:19;;;;;;;2.43;1.97;;;;;;;;;;4987384;28;20618;-83
2023/12/06 04:23:23;;;;;;;2.33;2.13;;;;;;;;;;4987694;28;20566;-84
2023/12/06 04:26:27;;;;;;;2.00;1.70;;;;;;;;;;4986897;28;20543;-83
2023/12/06 04:29:32;;;;;;;2.10;1.90;;;;;;;;;;4975103;28;20562;-82
2023/12/06 04:32:36;;;;;;;2.80;1.90;;;;;;;;;;4986969;28;20546;-83
2023/12/06 04:35:41;;;;;;;2.33;2.10;;;;;;;;;;4985732;28;20909;-83
2023/12/06 04:38:46;;;;;;;2.20;2.00;;;;;;;;;;4985942;28;20559;-84
2023/12/06 04:41:50;;;;;;;2.17;1.97;;;;;;;;;;4986787;28;20630;-83
2023/12/06 04:44:54;;;;;;;2.40;1.90;;;;;;;;;;4985912;28;21032;-83
2023/12/06 04:47:58;;;;;;;3.47;2.00;;;;;;;;;;4986780;28;21107;-84
2023/12/06 04:51:03;;;;;;;2.20;2.00;;;;;;;;;;4985561;28;20621;-83
2023/12/06 04:54:08;;;;;;;2.57;2.17;;;;;;;;;;4974273;28;20559;-83
2023/12/06 04:57:14;;;;;;;2.57;2.20;;;;;;;;;;4984710;28;20555;-83
2023/12/06 05:00:18;;;;;;;2.87;2.30;;;;;;;;;;4985664;28;20622;-83
2023/12/06 05:03:23;;;;;;;3.87;2.37;;;;;;;;;;4984959;28;20555;-83
2023/12/06 05:06:28;;;;;;;2.83;2.20;;;;;;;;;;4985300;28;20539;-83
2023/12/06 05:09:33;;;;;;;3.13;2.50;;;;;;;;;;4985970;28;20542;-83
2023/12/06 05:12:37;;;;;;;3.70;2.20;;;;;;;;;;4972504;28;21107;-84
2023/12/06 05:15:43;;;;;;;2.90;2.33;;;;;;;;;;4983400;28;20558;-83
2023/12/06 05:18:47;;;;;;;2.80;2.50;;;;;;;;;;4982634;28;20558;-83
2023/12/06 05:21:53;;;;;;;3.43;2.63;;;;;;;;;;4982224;28;20622;-83
2023/12/06 05:24:57;;;;;;;3.37;2.47;;;;;;;;;;4985656;28;20949;-85
2023/12/06 05:28:01;;;;;;;3.90;2.90;;;;;;;;;;4987197;28;20559;-83
2023/12/06 05:31:06;;;;;;;3.97;2.87;;;;;;;;;;4964166;28;21000;-83
2023/12/06 05:34:10;;;;;;;2.73;2.50;;;;;;;;;;4986735;28;21122;-83
2023/12/06 05:37:14;;;;;;;3.70;2.77;;;;;;;;;;4986236;28;20566;-83
2023/12/06 05:40:20;;;;;;;5.07;2.73;;;;;;;;;;4986139;28;20622;-83
2023/12/06 05:43:25;;;;;;;3.20;2.90;;;;;;;;;;4963600;28;20555;-83
2023/12/06 05:46:29;;;;;;;3.10;2.80;;;;;;;;;;4985219;28;21075;-84
2023/12/06 05:49:33;;;;;;;4.03;3.03;;;;;;;;;;4986178;28;20554;-84
2023/12/06 05:52:38;;;;;;;3.53;2.90;;;;;;;;;;4985832;28;20554;-83
2023/12/06 05:55:42;;;;;;;2.90;2.60;;;;;;;;;;4986302;28;20554;-84
2023/12/06 05:58:46;;;;;;;3.77;2.90;;;;;;;;;;4975275;28;20555;-84
2023/12/06 06:01:50;;;;;;;8.57;2.83;;;;;;;;;;4987058;28;20626;-85
2023/12/06 06:04:56;;;;;;;3.87;3.00;;;;;;;;;;4986892;28;20602;-84
2023/12/06 06:08:00;;;;;;;3.43;3.10;;;;;;;;;;4975055;28;20554;-83
2023/12/06 06:11:05;;;;;;;3.57;2.90;;;;;;;;;;4984901;28;20622;-83
2023/12/06 06:14:09;;;;;;;4.63;3.40;;;;;;;;;;4973753;28;20542;-83
2023/12/06 06:17:13;;;;;;;5.70;3.33;;;;;;;;;;4973425;28;20558;-83
2023/12/06 06:20:17;;;;;;;5.50;3.53;;;;;;;;;;4974019;28;20614;-83
2023/12/06 06:23:21;;;;;;;5.37;3.63;;;;;;;;;;4983873;28;21051;-86
2023/12/06 06:26:25;;;;;;;5.50;3.50;;;;;;;;;;4971090;28;21170;-85
2023/12/06 06:29:30;;;;;;;4.70;3.73;;;;;;;;;;4970657;28;20905;-86
2023/12/06 06:32:34;;;;;;;4.27;3.50;;;;;;;;;;4981009;28;20614;-87
2023/12/06 06:35:38;;;;;;;5.17;3.43;;;;;;;;;;4982304;28;20554;-86
2023/12/06 06:38:43;;;;;;;4.30;3.80;;;;;;;;;;4970876;28;20551;-86
2023/12/06 06:41:47;;;;;;;5.10;3.33;;;;;;;;;;4982378;28;20614;-86
2023/12/06 06:44:55;;;;;;;6.40;3.83;;;;;;;;;;4982318;28;20611;-87
2023/12/06 06:47:59;;;;;;;5.97;3.63;;;;;;;;;;4982614;28;20563;-87
2023/12/06 06:51:04;;;;;;;6.03;3.53;;;;;;;;;;4983078;28;21191;-86
2023/12/06 06:54:09;;;;;;;5.80;4.00;;;;;;;;;;4974297;28;20563;-86
2023/12/06 06:57:14;;;;;;;4.83;3.77;;;;;;;;;;4972324;28;20547;-86
2023/12/06 07:00:19;;;;;;;6.33;3.90;;;;;;;;;;4983796;28;20626;-85
2023/12/06 07:03:23;;;;;;;7.07;3.50;;;;;;;;;;4961688;28;20555;-86
2023/12/06 07:06:28;;;;;;;32.43;19.17;;;;;;;;;;4982355;28;20614;-85
2023/12/06 07:09:32;;;;;;;27.33;21.40;;;;;;;;;;4981865;28;21129;-86
2023/12/06 07:12:37;;;;;;;9.07;7.77;;;;;;;;;;4959477;28;20585;-86
2023/12/06 07:15:41;;;;;;;6.20;5.30;;;;;;;;;;4982972;28;20555;-85
2023/12/06 07:18:45;;;;;;;5.80;4.37;;;;;;;;;;4980830;28;20563;-85
2023/12/06 07:21:49;;;;;;;6.97;5.47;;;;;;;;;;4980924;28;20618;-84
2023/12/06 07:24:54;;;;;;;5.93;4.20;;;;;;;;;;4981729;28;20602;-85
2023/12/06 07:27:58;;;;;;;6.43;4.10;;;;;;;;;;4981363;28;20555;-85
2023/12/06 07:31:02;;;;;;;5.53;4.93;;;;;;;;;;4981460;28;20633;-86
2023/12/06 07:34:06;;;;;;;5.33;4.47;;;;;;;;;;4980943;28;20905;-85
2023/12/06 07:37:10;;;;;;;5.00;4.27;;;;;;;;;;4980166;28;20554;-85
2023/12/06 07:40:15;;;;;;;5.53;4.23;;;;;;;;;;4980180;28;20183;-85
2023/12/06 07:43:19;;;;;;;4.57;3.93;;;;;;;;;;4970033;28;20562;-86
2023/12/06 07:46:24;;;;;;;4.60;3.73;;;;;;;;;;4982016;28;20613;-84
2023/12/06 07:49:28;;;;;;;6.37;4.17;;;;;;;;;;4980889;28;20182;-85
2023/12/06 07:52:33;;;;;;;5.73;4.57;;;;;;;;;;4957837;28;20183;-84
2023/12/06 07:55:37;;;;;;;6.03;3.90;;;;;;;;;;4980761;28;20178;-85
2023/12/06 07:58:42;;;;;;;6.67;3.23;;;;;;;;;;4968676;28;20183;-85
2023/12/06 08:01:48;;;;;;;5.10;3.03;;;;;;;;;;4979862;28;20226;-85
2023/12/06 08:04:52;;;;;;;6.63;3.53;;;;;;;;;;4981339;28;20186;-86
2023/12/06 08:07:57;;;;;;;3.97;3.33;;;;;;;;;;4980080;28;20186;-84
2023/12/06 08:11:01;;;;;;;4.23;3.40;;;;;;;;;;4968663;28;20621;-86
2023/12/06 08:14:05;;;;;;;6.33;3.93;;;;;;;;;;4980781;28;20175;-86
2023/12/06 08:17:09;;;;;;;8.70;6.87;;;;;;;;;;4979974;28;20179;-86
2023/12/06 08:20:13;;;;;;;7.77;4.90;;;;;;;;;;4980689;28;20183;-84
2023/12/06 08:23:18;;;;;;;8.20;4.50;;;;;;;;;;4967710;28;20183;-85
2023/12/06 08:26:22;;;;;;;5.50;3.43;;;;;;;;;;4978981;28;20215;-85
2023/12/06 08:29:26;;;;;;;6.87;5.67;;;;;;;;;;4978215;28;20190;-84
2023/12/06 08:32:31;;;;;;;4.60;4.10;;;;;;;;;;4978465;28;20214;-84
2023/12/06 08:35:35;;;;;;;7.03;4.40;;;;;;;;;;4955790;28;20175;-84
2023/12/06 08:38:41;;;;;;;7.30;5.77;;;;;;;;;;4978605;28;20191;-85
2023/12/06 08:41:46;;;;;;;6.47;4.27;;;;;;;;;;4968060;28;20703;-85
2023/12/06 08:44:50;;;;;;;4.40;4.00;;;;;;;;;;4978812;28;20191;-85
2023/12/06 08:47:54;;;;;;;4.43;3.33;;;;;;;;;;4978777;28;20182;-85
2023/12/06 08:50:58;;;;;;;5.37;4.73;;;;;;;;;;4978250;28;20218;-86
2023/12/06 08:54:02;;;;;;;5.43;2.60;;;;;;;;;;4967759;28;20179;-85
2023/12/06 08:57:06;;;;;;;4.97;3.77;;;;;;;;;;4979348;28;20191;-85
2023/12/06 09:00:12;;;;;;;5.83;5.27;;;;;;;;;;4978799;28;20183;-84
2023/12/06 09:03:16;;;;;;;9.93;6.40;;;;;;;;;;4982494;28;20183;-85
2023/12/06 09:06:20;;;;;;;7.13;4.10;;;;;;;;;;4970814;28;20211;-85
2023/12/06 09:09:24;;;;;;;3.13;2.83;;;;;;;;;;4983055;28;20183;-85
2023/12/06 09:12:28;;;;;;;6.87;5.40;;;;;;;;;;4970730;28;20190;-85
2023/12/06 09:15:32;;;;;;;13.67;7.07;;;;;;;;;;4980610;28;20182;-85
2023/12/06 09:18:36;;;;;;;5.27;4.13;;;;;;;;;;4981203;28;20182;-86
2023/12/06 09:21:45;;;;;;;5.03;4.00;;;;;;;;;;4981616;28;20561;-86
2023/12/06 09:24:49;;;;;;;5.47;3.30;;;;;;;;;;4970898;28;20183;-85
2023/12/06 09:27:53;;;;;;;15.47;6.93;;;;;;;;;;4970645;28;20179;-85
2023/12/06 09:30:57;;;;;;;6.30;4.93;;;;;;;;;;4982869;28;20222;-85
2023/12/06 09:34:02;;;;;;;3.97;3.57;;;;;;;;;;4982393;28;20640;-85
2023/12/06 09:37:07;;;;;;;3.00;2.70;;;;;;;;;;4970207;28;20517;-84
2023/12/06 09:40:12;;;;;;;4.73;3.73;;;;;;;;;;4981453;28;20187;-85
2023/12/06 09:43:18;;;;;;;4.20;3.00;;;;;;;;;;4981406;28;20183;-84
2023/12/06 09:46:22;;;;;;;2.87;2.67;;;;;;;;;;4981280;28;20211;-85
2023/12/06 09:49:27;;;;;;;3.30;2.70;;;;;;;;;;4980679;28;20187;-85
2023/12/06 09:52:33;;;;;;;2.40;2.00;;;;;;;;;;4980214;28;20636;-85
2023/12/06 09:55:38;;;;;;;5.13;1.83;;;;;;;;;;4981965;28;20187;-85
2023/12/06 09:58:43;;;;;;;3.23;1.90;;;;;;;;;;4969396;28;20187;-85
2023/12/06 10:01:47;;;;;;;2.13;1.93;;;;;;;;;;4982433;28;20699;-84
2023/12/06 10:04:51;;;;;;;1.90;1.70;;;;;;;;;;4982595;28;20183;-85
2023/12/06 10:07:56;;;;;;;3.50;2.60;;;;;;;;;;4982391;28;20176;-85
2023/12/06 10:11:01;;;;;;;5.27;4.77;;;;;;;;;;4969967;28;20561;-84
2023/12/06 10:14:15;;;;;;;3.10;2.80;;;;;;;;;;4979909;28;20183;-85
2023/12/06 10:17:22;;;;;;;3.30;2.40;;;;;;;;;;4981722;28;20180;-87
2023/12/06 10:20:27;;;;;;;49.83;32.70;;;;;;;;;;4980933;28;20230;-85
2023/12/06 10:23:31;;;;;;;8.43;7.00;;;;;;;;;;4981191;28;20190;-86
2023/12/06 10:26:36;;;;;;;5.37;4.60;;;;;;;;;;4980429;28;20550;-85
2023/12/06 10:29:40;;;;;;;3.83;3.20;;;;;;;;;;4980585;28;20183;-81
2023/12/06 10:32:45;;;;;;;3.93;2.80;;;;;;;;;;4980405;28;20632;-81
2023/12/06 10:35:50;;;;;;;2.67;2.47;;;;;;;;;;4980285;28;20187;-85
2023/12/06 10:38:55;;;;;;;4.30;3.30;;;;;;;;;;4980356;28;20644;-84
2023/12/06 10:42:05;;;;;;;9.27;6.20;;;;;;;;;;4980027;28;20214;-84
2023/12/06 10:45:10;;;;;;;8.20;5.53;;;;;;;;;;4980502;28;20179;-86
2023/12/06 10:48:16;;;;;;;4.43;3.50;;;;;;;;;;4968838;28;20179;-85
2023/12/06 10:51:20;;;;;;;3.90;3.47;;;;;;;;;;4967852;28;20219;-86
2023/12/06 10:54:26;;;;;;;5.27;4.30;;;;;;;;;;4967613;28;20179;-85
2023/12/06 10:57:30;;;;;;;5.30;3.93;;;;;;;;;;4968406;28;20175;-85
2023/12/06 11:00:35;;;;;;;3.57;3.23;;;;;;;;;;4968317;28;20242;-85
2023/12/06 11:03:39;;;;;;;4.57;3.87;;;;;;;;;;4980943;28;20187;-86
2023/12/06 11:06:57;;;;;;;5.50;3.90;;;;;;;;;;4980287;28;20554;-86
2023/12/06 11:10:09;;;;;;;3.13;2.60;;;;;;;;;;4979429;28;20176;-87
2023/12/06 11:13:19;;;;;;;3.83;2.93;;;;;;;;;;4980005;28;20179;-85
2023/12/06 11:17:04;;;;;;;2.37;2.13;;;;;;;;;;4957637;28;20645;-85
2023/12/06 11:20:09;;;;;;;3.57;2.03;;;;;;;;;;4956936;28;20187;-85
2023/12/06 11:23:16;;;;;;;2.40;2.03;;;;;;;;;;4979347;28;20645;-85
2023/12/06 11:26:21;;;;;;;2.97;1.83;;;;;;;;;;4968099;28;20211;-86
2023/12/06 11:29:26;;;;;;;3.87;1.73;;;;;;;;;;4979112;28;20529;-85
2023/12/06 11:32:57;;;;;;;2.47;1.90;;;;;;;;;;4955970;28;20207;-86
2023/12/06 11:36:02;;;;;;;4.73;2.30;;;;;;;;;;4966418;28;20179;-85
2023/12/06 11:39:16;;;;;;;2.10;1.70;;;;;;;;;;4956097;28;20187;-85
2023/12/06 11:42:22;;;;;;;3.53;2.20;;;;;;;;;;4977302;28;20222;-84
2023/12/06 11:45:31;;;;;;;3.03;2.47;;;;;;;;;;4977490;28;20183;-84
2023/12/06 11:48:46;;;;;;;3.00;2.13;;;;;;;;;;4978530;28;20514;-85
2023/12/06 11:51:59;;;;;;;2.63;1.70;;;;;;;;;;4978785;28;20218;-84
2023/12/06 11:55:03;;;;;;;2.73;1.97;;;;;;;;;;4977879;28;20182;-85
2023/12/06 11:58:12;;;;;;;3.50;2.67;;;;;;;;;;4967629;28;20179;-85
2023/12/06 12:01:17;;;;;;;14.50;10.00;;;;;;;;;;4979336;28;20218;-84
2023/12/06 12:04:22;;;;;;;8.40;5.33;;;;;;;;;;4978216;28;20178;-85
2023/12/06 12:07:27;;;;;;;4.37;3.40;;;;;;;;;;4977782;28;20211;-85
2023/12/06 12:10:31;;;;;;;4.13;2.83;;;;;;;;;;4966545;28;20223;-84
2023/12/06 12:13:42;;;;;;;3.83;2.70;;;;;;;;;;4978558;28;20178;-86
2023/12/06 12:16:46;;;;;;;2.60;2.40;;;;;;;;;;4966624;28;20198;-84
2023/12/06 12:19:52;;;;;;;3.10;2.73;;;;;;;;;;4979248;28;20187;-85
2023/12/06 12:22:57;;;;;;;3.97;2.33;;;;;;;;;;4978590;28;20187;-85
2023/12/06 12:26:03;;;;;;;2.37;1.67;;;;;;;;;;4978564;28;20187;-86
2023/12/06 12:29:15;;;;;;;3.33;2.37;;;;;;;;;;4979416;28;20640;-84
2023/12/06 12:32:19;;;;;;;3.40;2.30;;;;;;;;;;4956411;28;20226;-84
2023/12/06 12:35:23;;;;;;;3.53;2.70;;;;;;;;;;4978736;28;20183;-85
2023/12/06 12:38:28;;;;;;;4.37;2.50;;;;;;;;;;4982722;28;20175;-85
2023/12/06 12:41:32;;;;;;;3.87;2.03;;;;;;;;;;4982099;28;20214;-84
2023/12/06 12:44:36;;;;;;;2.57;2.00;;;;;;;;;;4970963;28;20644;-84
2023/12/06 12:47:40;;;;;;;3.23;2.33;;;;;;;;;;4959270;28;20676;-85
2023/12/06 12:50:44;;;;;;;2.70;2.30;;;;;;;;;;4971624;28;20226;-84
2023/12/06 12:53:49;;;;;;;4.27;2.50;;;;;;;;;;4970807;28;20190;-86
2023/12/06 12:56:53;;;;;;;4.23;2.60;;;;;;;;;;4981684;28;20175;-84
2023/12/06 12:59:57;;;;;;;2.60;2.00;;;;;;;;;;4982197;28;20183;-82
2023/12/06 13:03:03;;;;;;;9.93;6.97;;;;;;;;;;4982076;28;20183;-83
2023/12/06 13:06:08;;;;;;;26.00;14.00;;;;;;;;;;4981973;28;20183;-84
2023/12/06 13:09:13;;;;;;;65.30;34.03;;;;;;;;;;4981989;28;20187;-83
2023/12/06 13:12:17;;;;;;;8.93;5.77;;;;;;;;;;4981826;28;20229;-84
2023/12/06 13:15:21;;;;;;;44.27;18.87;;;;;;;;;;4970671;28;20186;-85
2023/12/06 13:18:25;;;;;;;60.50;28.70;;;;;;;;;;4970169;28;20202;-86
2023/12/06 13:21:56;;;;;;;22.87;13.53;;;;;;;;;;4980758;28;20597;-91
2023/12/06 13:40:16;;;;;;;7.60;5.23;;;;;;;;;;5000883;28;20214;-90
2023/12/06 13:43:43;;;;;;;12.37;8.37;;;;;;;;;;4972099;28;20191;-88
2023/12/06 13:46:49;;;;;;;16.07;10.70;;;;;;;;;;4967975;28;20207;-91
2023/12/06 13:49:54;;;;;;;13.70;9.83;;;;;;;;;;4967960;28;20668;-88
2023/12/06 13:53:00;;;;;;;6.40;5.17;;;;;;;;;;4957523;28;20187;-90
2023/12/06 13:56:04;;;;;;;6.87;5.77;;;;;;;;;;4969726;28;20183;-85
2023/12/06 13:59:09;;;;;;;8.23;5.00;;;;;;;;;;4980965;28;20179;-85
2023/12/06 14:02:14;;;;;;;6.27;4.90;;;;;;;;;;4981613;28;20230;-85
2023/12/06 14:05:18;;;;;;;7.27;5.17;;;;;;;;;;4981977;28;20187;-85
2023/12/06 14:08:24;;;;;;;5.87;4.70;;;;;;;;;;4982267;28;20206;-85
2023/12/06 14:11:28;;;;;;;8.03;5.60;;;;;;;;;;4970507;28;20227;-85
2023/12/06 14:14:33;;;;;;;5.97;5.33;;;;;;;;;;4979542;28;20183;-85
2023/12/06 14:17:38;;;;;;;6.33;5.23;;;;;;;;;;4979679;28;20179;-86
2023/12/06 14:20:43;;;;;;;8.00;6.37;;;;;;;;;;4980429;28;20218;-86
2023/12/06 14:23:47;;;;;;;8.37;6.10;;;;;;;;;;4979956;28;20183;-86
2023/12/06 14:26:51;;;;;;;8.43;6.30;;;;;;;;;;4969060;28;20191;-85
2023/12/06 14:29:55;;;;;;;10.17;7.33;;;;;;;;;;4969523;28;20186;-86
2023/12/06 14:33:00;;;;;;;8.07;6.67;;;;;;;;;;4980228;28;20182;-85
2023/12/06 14:36:06;;;;;;;8.30;6.77;;;;;;;;;;4980021;28;20183;-85
2023/12/06 14:39:11;;;;;;;10.23;7.60;;;;;;;;;;4968433;28;20676;-85
2023/12/06 14:42:18;;;;;;;9.83;7.63;;;;;;;;;;4980572;28;20218;-86
2023/12/06 14:45:22;;;;;;;9.30;7.20;;;;;;;;;;4969427;28;20191;-84
2023/12/06 14:48:26;;;;;;;10.97;8.10;;;;;;;;;;4969401;28;20206;-86
2023/12/06 14:51:31;;;;;;;9.87;7.53;;;;;;;;;;4968913;28;20227;-85
2023/12/06 14:54:56;;;;;;;9.93;7.63;;;;;;;;;;4979960;28;20179;-85
2023/12/06 14:58:01;;;;;;;10.30;8.00;;;;;;;;;;4968168;28;20522;-86
2023/12/06 15:01:11;;;;;;;10.43;7.87;;;;;;;;;;4968646;28;20222;-85
2023/12/06 15:04:16;;;;;;;11.63;8.60;;;;;;;;;;4980574;28;20187;-85
2023/12/06 15:07:21;;;;;;;11.00;8.17;;;;;;;;;;4968657;28;20561;-85
2023/12/06 15:10:26;;;;;;;12.47;9.30;;;;;;;;;;4968223;28;20230;-85
2023/12/06 15:13:30;;;;;;;12.07;8.97;;;;;;;;;;4968055;28;20183;-85
2023/12/06 15:16:34;;;;;;;12.43;8.90;;;;;;;;;;4980704;28;20624;-85
2023/12/06 15:19:39;;;;;;;10.17;8.00;;;;;;;;;;4991254;28;20179;-86
2023/12/06 15:22:44;;;;;;;11.27;8.70;;;;;;;;;;4990956;28;20187;-85
2023/12/06 15:25:48;;;;;;;10.63;8.27;;;;;;;;;;4968271;28;20186;-84
2023/12/06 15:28:52;;;;;;;31.20;16.87;;;;;;;;;;4980041;28;20949;-84
2023/12/06 15:31:57;;;;;;;20.77;12.30;;;;;;;;;;4978978;28;20222;-84
2023/12/06 15:35:03;;;;;;;29.23;17.73;;;;;;;;;;4979718;28;20675;-84
2023/12/06 15:38:07;;;;;;;12.13;8.83;;;;;;;;;;4981532;28;20617;-84
2023/12/06 15:41:15;;;;;;;11.73;8.70;;;;;;;;;;4969458;28;20618;-83
2023/12/06 15:44:20;;;;;;;11.23;8.50;;;;;;;;;;4980843;28;20183;-83
2023/12/06 15:47:24;;;;;;;9.83;7.07;;;;;;;;;;4970927;28;20206;-83
2023/12/06 15:50:28;;;;;;;10.43;7.73;;;;;;;;;;4982012;28;20626;-85
2023/12/06 15:53:33;;;;;;;11.27;7.77;;;;;;;;;;4981899;28;20534;-84
2023/12/06 15:56:38;;;;;;;11.30;8.57;;;;;;;;;;4981894;28;20546;-85
2023/12/06 15:59:42;;;;;;;13.37;9.60;;;;;;;;;;4969598;28;20543;-84
2023/12/06 16:02:47;;;;;;;11.33;8.60;;;;;;;;;;4969158;28;20559;-84
2023/12/06 16:05:54;;;;;;;13.27;10.10;;;;;;;;;;4981064;28;20187;-83
2023/12/06 16:08:58;;;;;;;11.23;8.47;;;;;;;;;;4981576;28;20686;-85
2023/12/06 16:12:04;;;;;;;11.53;8.63;;;;;;;;;;4979315;28;20734;-85
2023/12/06 16:15:09;;;;;;;12.53;9.17;;;;;;;;;;4956252;28;20546;-84
2023/12/06 16:18:13;;;;;;;19.27;13.00;;;;;;;;;;4977713;28;20179;-86
2023/12/06 16:21:18;;;;;;;16.63;12.60;;;;;;;;;;4967371;28;20621;-84
2023/12/06 16:24:23;;;;;;;10.53;8.70;;;;;;;;;;4978907;28;20542;-86
2023/12/06 16:27:27;;;;;;;10.47;8.47;;;;;;;;;;4979951;28;20542;-87
2023/12/06 16:30:31;;;;;;;13.33;9.83;;;;;;;;;;4956227;28;20691;-86
2023/12/06 16:33:36;;;;;;;11.23;8.67;;;;;;;;;;4968252;28;20179;-87
2023/12/06 16:36:42;;;;;;;11.63;8.23;;;;;;;;;;4979772;28;20182;-85
2023/12/06 16:39:47;;;;;;;11.87;9.47;;;;;;;;;;4968024;28;20598;-85
2023/12/06 16:42:53;;;;;;;11.67;9.00;;;;;;;;;;4978062;28;20652;-84
2023/12/06 16:45:58;;;;;;;10.83;8.13;;;;;;;;;;4980474;28;20571;-87
2023/12/06 16:49:03;;;;;;;11.73;8.53;;;;;;;;;;4957542;28;20214;-87
2023/12/06 16:52:08;;;;;;;9.03;7.57;;;;;;;;;;4966071;28;20226;-88
2023/12/06 16:55:12;;;;;;;9.60;7.90;;;;;;;;;;4978330;28;20187;-90
2023/12/06 16:58:16;;;;;;;10.70;7.87;;;;;;;;;;4945045;28;20525;-89
2023/12/06 17:01:34;;;;;;;11.50;9.20;;;;;;;;;;4955495;28;20552;-88
2023/12/06 17:04:40;;;;;;;9.73;8.07;;;;;;;;;;4967459;28;20188;-87
2023/12/06 17:07:44;;;;;;;12.40;8.23;;;;;;;;;;4981577;28;20313;-86
2023/12/06 17:10:48;;;;;;;9.97;8.03;;;;;;;;;;4980616;28;20222;-85
2023/12/06 17:13:53;;;;;;;10.03;7.97;;;;;;;;;;4981272;28;20554;-86
2023/12/06 17:16:58;;;;;;;10.53;8.63;;;;;;;;;;4980010;28;20179;-87
2023/12/06 17:20:03;;;;;;;11.97;9.27;;;;;;;;;;4980110;28;20183;-85
2023/12/06 17:23:07;;;;;;;10.33;7.87;;;;;;;;;;4968174;28;20558;-85
2023/12/06 17:26:12;;;;;;;10.50;7.53;;;;;;;;;;4959147;28;20187;-87
2023/12/06 17:29:17;;;;;;;9.87;7.50;;;;;;;;;;4980129;28;20602;-90
2023/12/06 17:32:21;;;;;;;10.23;7.37;;;;;;;;;;4968695;28;21194;-89
2023/12/06 17:35:28;;;;;;;9.90;8.00;;;;;;;;;;4968945;28;20187;-91
2023/12/06 17:38:33;;;;;;;10.57;8.00;;;;;;;;;;4980304;28;20605;-89
2023/12/06 17:41:37;;;;;;;9.57;7.90;;;;;;;;;;4958298;28;20617;-89
2023/12/06 17:45:24;;;;;;;9.67;7.93;;;;;;;;;;4970801;28;20554;-89
2023/12/06 17:48:29;;;;;;;12.83;8.07;;;;;;;;;;4979876;28;20680;-86
2023/12/06 17:51:33;;;;;;;10.57;8.30;;;;;;;;;;4979272;28;20621;-87
2023/12/06 17:54:37;;;;;;;11.80;8.37;;;;;;;;;;4979583;28;20183;-89
2023/12/06 17:57:42;;;;;;;10.77;8.13;;;;;;;;;;4967910;28;20563;-87
2023/12/06 18:00:47;;;;;;;12.00;8.20;;;;;;;;;;4979348;28;20622;-89
2023/12/06 18:03:52;;;;;;;10.20;8.23;;;;;;;;;;4957209;28;20554;-88
2023/12/06 18:07:08;;;;;;;13.23;9.23;;;;;;;;;;4979708;28;20559;-87
2023/12/06 18:10:13;;;;;;;13.10;8.17;;;;;;;;;;4979898;28;20543;-87
2023/12/06 18:13:18;;;;;;;13.73;9.00;;;;;;;;;;4973747;28;20191;-87
2023/12/06 18:16:25;;;;;;;13.10;9.30;;;;;;;;;;4977965;28;20551;-91
2023/12/06 18:19:29;;;;;;;14.97;10.47;;;;;;;;;;4969847;28;20551;-91
2023/12/06 18:22:35;;;;;;;11.70;8.97;;;;;;;;;;4972659;28;20175;-92
2023/12/06 18:25:40;;;;;;;13.47;9.60;;;;;;;;;;4969830;28;21099;-87
2023/12/06 18:28:44;;;;;;;22.50;15.57;;;;;;;;;;4967413;28;20206;-86
2023/12/06 18:31:50;;;;;;;14.60;11.17;;;;;;;;;;4979179;28;20991;-85
2023/12/06 18:34:54;;;;;;;12.17;9.57;;;;;;;;;;4967918;28;20566;-84
2023/12/06 18:37:58;;;;;;;13.50;9.93;;;;;;;;;;4968379;28;20675;-84
2023/12/06 18:41:04;;;;;;;11.73;9.47;;;;;;;;;;4969460;28;20214;-84